createdAt,value
2022-10-18T00:00:18.240Z,79.10
2022-10-18T00:03:03.742Z,79.00
2022-10-18T00:05:49.822Z,78.00
2022-10-18T00:08:37.219Z,77.90
2022-10-18T00:11:22.622Z,78.20
2022-10-18T00:14:08.390Z,77.00
2022-10-18T00:16:54.094Z,77.50
2022-10-18T00:19:39.536Z,76.70
2022-10-18T00:22:27.471Z,76.60
2022-10-18T00:25:13.628Z,77.90
2022-10-18T00:27:59.431Z,78.00
2022-10-18T00:30:45.069Z,77.50
2022-10-18T00:33:30.798Z,77.50
2022-10-18T00:36:16.541Z,77.00
2022-10-18T00:39:07.015Z,76.70
2022-10-18T00:41:52.452Z,76.30
2022-10-18T00:44:38.575Z,76.30
2022-10-18T00:47:23.827Z,76.20
2022-10-18T00:50:12.904Z,76.40
2022-10-18T00:53:01.781Z,76.80
2022-10-18T00:55:49.957Z,76.80
2022-10-18T00:58:35.753Z,77.30
2022-10-18T01:01:24.473Z,77.10
2022-10-18T01:04:15.648Z,77.10
2022-10-18T01:07:09.110Z,77.00
2022-10-18T01:10:00.065Z,77.00
2022-10-18T01:13:12.477Z,76.50
2022-10-18T01:16:07.280Z,76.50
2022-10-18T01:19:21.478Z,76.50
2022-10-18T01:22:34.757Z,76.30
2022-10-18T01:25:46.235Z,76.60
2022-10-18T01:29:08.614Z,76.60
2022-10-18T01:31:59.706Z,76.90
2022-10-18T01:34:48.945Z,77.00
2022-10-18T01:37:35.536Z,77.30
2022-10-18T01:40:23.664Z,77.20
2022-10-18T01:43:14.606Z,77.70
2022-10-18T01:46:01.632Z,77.60
2022-10-18T01:48:49.793Z,78.10
2022-10-18T01:51:37.325Z,78.30
2022-10-18T01:54:29.895Z,78.40
2022-10-18T01:57:22.789Z,78.70
2022-10-18T02:00:19.271Z,78.90
2022-10-18T02:03:15.206Z,79.00
2022-10-18T02:06:10.409Z,79.20
2022-10-18T02:09:06.414Z,79.50
2022-10-18T02:11:55.019Z,79.60
2022-10-18T02:14:47.339Z,79.60
2022-10-18T02:17:33.363Z,79.50
2022-10-18T02:20:28.447Z,79.60
2022-10-18T02:23:15.200Z,79.50
2022-10-18T02:26:02.120Z,79.50
2022-10-18T02:28:47.985Z,79.60
2022-10-18T02:31:44.300Z,79.80
2022-10-18T02:34:36.705Z,80.00
2022-10-18T02:37:28.203Z,80.20
2022-10-18T02:40:14.844Z,80.30
2022-10-18T02:43:02.530Z,80.40
2022-10-18T02:45:47.926Z,80.40
2022-10-18T02:48:33.487Z,80.50
2022-10-18T02:51:18.683Z,80.70
2022-10-18T02:54:04.466Z,80.80
2022-10-18T02:56:54.380Z,80.70
2022-10-18T02:59:42.174Z,81.10
2022-10-18T03:02:27.651Z,81.10
2022-10-18T03:05:13.521Z,81.30
2022-10-18T03:08:02.334Z,81.50
2022-10-18T03:10:47.734Z,82.30
2022-10-18T03:13:36.323Z,81.70
2022-10-18T03:16:24.454Z,81.90
2022-10-18T03:19:10.390Z,82.00
2022-10-18T03:21:58.469Z,82.00
2022-10-18T03:24:43.802Z,82.10
2022-10-18T03:27:29.654Z,81.90
2022-10-18T03:30:15.419Z,82.20
2022-10-18T03:33:01.040Z,82.40
2022-10-18T03:35:46.870Z,82.70
2022-10-18T03:38:37.206Z,82.80
2022-10-18T03:41:22.641Z,82.80
2022-10-18T03:44:10.612Z,83.10
2022-10-18T03:46:56.224Z,83.30
2022-10-18T03:49:41.761Z,84.00
2022-10-18T03:52:29.686Z,83.50
2022-10-18T03:55:15.828Z,83.40
2022-10-18T03:58:01.204Z,84.00
2022-10-18T04:00:50.036Z,84.10
2022-10-18T04:03:35.539Z,84.40
2022-10-18T04:06:23.986Z,84.90
2022-10-18T04:09:10.605Z,85.30
2022-10-18T04:11:56.087Z,85.40
2022-10-18T04:14:41.852Z,86.20
2022-10-18T04:17:29.875Z,85.90
2022-10-18T04:20:18.383Z,85.90
2022-10-18T04:23:03.741Z,86.40
2022-10-18T04:25:51.681Z,86.60
2022-10-18T04:28:40.115Z,86.60
2022-10-18T04:31:25.682Z,86.90
2022-10-18T04:34:11.343Z,87.00
2022-10-18T04:36:57.128Z,87.00
2022-10-18T04:39:49.845Z,87.20
2022-10-18T04:42:38.459Z,87.40
2022-10-18T04:45:24.229Z,87.60
2022-10-18T04:48:09.619Z,87.40
2022-10-18T04:50:55.156Z,87.30
2022-10-18T04:53:42.601Z,87.30
2022-10-18T04:56:30.439Z,87.10
2022-10-18T04:59:18.255Z,86.40
2022-10-18T05:02:05.544Z,86.80
2022-10-18T05:04:51.690Z,86.90
2022-10-18T05:07:37.630Z,87.10
2022-10-18T05:10:23.049Z,86.80
2022-10-18T05:13:13.803Z,86.90
2022-10-18T05:16:00.336Z,87.00
2022-10-18T05:18:46.293Z,87.20
2022-10-18T05:21:32.349Z,87.40
2022-10-18T05:24:21.965Z,87.70
2022-10-18T05:27:11.110Z,88.00
2022-10-18T05:29:58.907Z,88.40
2022-10-18T05:32:46.723Z,88.40
2022-10-18T05:35:34.533Z,88.30
2022-10-18T05:38:20.077Z,88.30
2022-10-18T05:41:06.081Z,88.70
2022-10-18T05:43:51.666Z,89.10
2022-10-18T05:46:37.167Z,89.60
2022-10-18T05:49:23.391Z,90.00
2022-10-18T05:52:09.073Z,90.20
2022-10-18T05:54:54.805Z,90.40
2022-10-18T05:57:39.997Z,90.30
2022-10-18T06:00:28.425Z,90.40
2022-10-18T06:03:16.493Z,90.40
2022-10-18T06:06:08.342Z,90.50
2022-10-18T06:08:53.676Z,90.30
2022-10-18T06:11:44.458Z,90.70
2022-10-18T06:14:38.367Z,90.90
2022-10-18T06:17:24.619Z,91.10
2022-10-18T06:20:11.358Z,91.10
2022-10-18T06:22:59.391Z,91.10
2022-10-18T06:25:45.548Z,91.30
2022-10-18T06:28:31.212Z,91.40
2022-10-18T06:31:17.553Z,91.50
2022-10-18T06:34:03.807Z,91.70
2022-10-18T06:36:56.396Z,91.80
2022-10-18T06:39:46.076Z,91.90
2022-10-18T06:42:32.233Z,92.00
2022-10-18T06:45:20.490Z,92.60
2022-10-18T06:48:06.311Z,92.80
2022-10-18T06:51:00.237Z,93.00
2022-10-18T06:53:59.254Z,93.00
2022-10-18T06:56:51.717Z,92.90
2022-10-18T06:59:40.064Z,92.50
2022-10-18T07:02:25.793Z,92.20
2022-10-18T07:05:18.098Z,92.00
2022-10-18T07:08:06.419Z,91.90
2022-10-18T07:10:54.751Z,91.80
2022-10-18T07:13:40.485Z,91.70
2022-10-18T07:16:26.604Z,91.80
2022-10-18T07:19:12.672Z,91.70
2022-10-18T07:21:58.334Z,91.40
2022-10-18T07:24:43.610Z,90.90
2022-10-18T07:27:31.912Z,90.50
2022-10-18T07:30:17.843Z,90.30
2022-10-18T07:33:05.876Z,89.50
2022-10-18T07:35:54.590Z,88.80
2022-10-18T07:38:41.041Z,88.50
2022-10-18T07:41:31.849Z,88.10
2022-10-18T07:44:17.385Z,87.80
2022-10-18T07:47:07.626Z,87.80
2022-10-18T07:49:53.171Z,88.10
2022-10-18T07:52:41.639Z,88.40
2022-10-18T07:55:26.967Z,88.40
2022-10-18T07:58:12.405Z,88.00
2022-10-18T08:00:58.107Z,87.10
2022-10-18T08:03:44.237Z,87.30
2022-10-18T08:06:29.547Z,87.50
2022-10-18T08:09:15.131Z,86.90
2022-10-18T08:12:00.581Z,87.30
2022-10-18T08:14:47.064Z,87.50
2022-10-18T08:17:32.833Z,88.10
2022-10-18T08:20:30.318Z,88.90
2022-10-18T08:23:17.311Z,90.10
2022-10-18T08:26:12.803Z,89.90
2022-10-18T08:29:28.079Z,90.20
2022-10-18T08:32:08.863Z,90.60
2022-10-18T08:34:54.576Z,90.90
2022-10-18T08:37:43.657Z,90.80
2022-10-18T08:40:29.431Z,91.00
2022-10-18T08:43:37.030Z,91.10
2022-10-18T08:46:22.852Z,90.70
2022-10-18T08:49:18.271Z,90.70
2022-10-18T08:52:21.486Z,90.60
2022-10-18T08:55:43.409Z,90.50
2022-10-18T08:58:34.680Z,91.50
2022-10-18T09:01:41.952Z,91.50
2022-10-18T09:04:41.840Z,92.30
2022-10-18T09:07:44.110Z,92.00
2022-10-18T09:10:42.614Z,92.40
2022-10-18T09:14:02.812Z,92.30
2022-10-18T09:17:01.726Z,92.70
2022-10-18T09:20:12.126Z,92.60
2022-10-18T09:23:23.097Z,92.80
2022-10-18T09:26:23.456Z,93.20
2022-10-18T09:29:09.114Z,93.10
2022-10-18T09:32:32.457Z,93.50
2022-10-18T09:35:38.312Z,93.50
2022-10-18T09:38:30.892Z,93.60
2022-10-18T09:41:25.831Z,94.20
2022-10-18T09:44:19.761Z,95.00
2022-10-18T09:47:18.317Z,95.60
2022-10-18T09:50:35.978Z,95.70
2022-10-18T09:53:50.484Z,96.00
2022-10-18T09:57:05.239Z,96.30
2022-10-18T09:59:56.974Z,96.30
2022-10-18T10:02:51.884Z,96.40
2022-10-18T10:05:39.907Z,96.80
2022-10-18T10:08:33.361Z,97.10
2022-10-18T10:11:29.260Z,97.60
2022-10-18T10:17:20.810Z,97.10
2022-10-18T10:20:20.669Z,97.30
2022-10-18T10:23:25.059Z,97.50
2022-10-18T10:26:32.097Z,97.60
2022-10-18T10:29:46.944Z,97.80
2022-10-18T10:32:47.482Z,98.00
2022-10-18T10:35:56.333Z,98.10
2022-10-18T10:38:46.580Z,98.30
2022-10-18T10:41:43.569Z,98.80
2022-10-18T10:44:38.254Z,99.10
2022-10-18T10:47:33.884Z,99.50
2022-10-18T10:50:26.911Z,99.50
2022-10-18T10:53:38.202Z,99.90
2022-10-18T10:56:33.540Z,99.90
2022-10-18T10:59:26.781Z,99.90
2022-10-18T11:02:39.548Z,99.90
2022-10-18T11:05:29.865Z,99.90
2022-10-18T11:08:29.320Z,99.90
2022-10-18T11:11:32.072Z,99.10
2022-10-18T11:14:27.635Z,99.20
2022-10-18T11:17:35.989Z,99.50
2022-10-18T11:20:36.811Z,99.60
2022-10-18T11:23:35.897Z,99.60
2022-10-18T11:26:31.151Z,99.50
2022-10-18T11:29:44.759Z,98.60
2022-10-18T11:32:56.717Z,97.90
2022-10-18T11:35:54.324Z,96.70
2022-10-18T11:39:13.455Z,95.70
2022-10-18T11:42:39.995Z,94.50
2022-10-18T11:45:43.642Z,92.80
2022-10-18T11:48:48.043Z,92.90
2022-10-18T11:52:07.284Z,93.70
2022-10-18T11:55:16.569Z,93.80
2022-10-18T11:58:38.183Z,93.10
2022-10-18T12:01:54.888Z,92.60
2022-10-18T12:04:59.828Z,91.70
2022-10-18T12:08:12.402Z,91.70
2022-10-18T12:11:07.691Z,91.30
2022-10-18T12:14:02.352Z,91.60
2022-10-18T12:16:51.322Z,90.70
2022-10-18T12:19:42.802Z,90.70
2022-10-18T12:22:43.099Z,90.40
2022-10-18T12:25:39.521Z,90.10
2022-10-18T12:28:43.830Z,90.00
2022-10-18T12:31:42.412Z,89.30
2022-10-18T12:34:41.776Z,89.60
2022-10-18T12:37:51.849Z,89.30
2022-10-18T12:40:44.810Z,89.90
2022-10-18T12:43:38.107Z,88.90
2022-10-18T12:46:58.460Z,89.60
2022-10-18T12:49:59.986Z,88.20
2022-10-18T12:53:20.285Z,88.70
2022-10-18T12:56:30.135Z,87.10
2022-10-18T12:59:26.277Z,86.10
2022-10-18T13:02:26.883Z,85.50
2022-10-18T13:05:54.475Z,84.80
2022-10-18T13:08:48.217Z,83.70
2022-10-18T13:11:41.037Z,84.10
2022-10-18T13:15:24.270Z,82.60
2022-10-18T13:18:20.835Z,82.90
2022-10-18T13:21:43.801Z,82.80
2022-10-18T13:24:44.276Z,82.90
2022-10-18T13:27:48.669Z,82.50
2022-10-18T13:30:44.122Z,81.70
2022-10-18T13:33:40.882Z,79.90
2022-10-18T13:36:33.692Z,79.30
2022-10-18T13:39:25.938Z,78.60
2022-10-18T13:42:29.001Z,78.10
2022-10-18T13:45:33.454Z,77.00
2022-10-18T13:48:31.509Z,77.40
2022-10-18T13:51:42.475Z,76.50
2022-10-18T13:55:09.904Z,75.10
2022-10-18T13:58:10.620Z,73.20
2022-10-18T14:01:30.600Z,72.50
2022-10-18T14:04:46.671Z,73.70
2022-10-18T14:07:40.140Z,74.30
2022-10-18T14:11:00.875Z,75.10
2022-10-18T14:14:16.574Z,75.30
2022-10-18T14:17:16.866Z,74.60
2022-10-18T14:20:28.752Z,72.70
2022-10-18T14:23:26.078Z,71.30
2022-10-18T14:26:22.847Z,69.30
2022-10-18T14:29:22.993Z,71.30
2022-10-18T14:32:30.030Z,71.90
2022-10-18T14:35:39.075Z,71.10
2022-10-18T14:38:32.191Z,72.00
2022-10-18T14:41:38.523Z,73.40
2022-10-18T14:44:37.250Z,73.30
2022-10-18T14:47:31.282Z,73.30
2022-10-18T14:50:30.466Z,73.80
2022-10-18T14:53:22.091Z,74.70
2022-10-18T14:56:22.121Z,75.20
2022-10-18T14:59:31.840Z,75.90
2022-10-18T15:02:32.722Z,76.60
2022-10-18T15:05:25.421Z,76.70
2022-10-18T15:08:18.059Z,76.60
2022-10-18T15:11:14.323Z,76.00
2022-10-18T15:14:15.811Z,75.50
2022-10-18T15:17:16.756Z,75.00
2022-10-18T15:20:32.670Z,74.10
2022-10-18T15:23:26.918Z,74.60
2022-10-18T15:26:26.712Z,75.80
2022-10-18T15:29:20.289Z,77.00
2022-10-18T15:32:28.926Z,77.60
2022-10-18T15:35:26.541Z,78.80
2022-10-18T15:38:28.141Z,79.10
2022-10-18T15:41:46.667Z,79.30
2022-10-18T15:44:51.472Z,80.20
2022-10-18T15:47:39.871Z,81.20
2022-10-18T15:50:47.488Z,82.30
2022-10-18T15:53:56.346Z,82.50
2022-10-18T15:56:45.218Z,83.60
2022-10-18T15:59:53.596Z,84.50
2022-10-18T16:02:45.261Z,83.60
2022-10-18T16:05:38.445Z,85.20
2022-10-18T16:08:32.340Z,84.80
2022-10-18T16:11:28.334Z,85.30
2022-10-18T16:14:14.354Z,86.40
2022-10-18T16:17:02.573Z,86.50
2022-10-18T16:19:51.670Z,86.90
2022-10-18T16:22:43.800Z,86.00
2022-10-18T16:25:34.830Z,84.40
2022-10-18T16:28:28.107Z,84.90
2022-10-18T16:31:23.635Z,85.00
2022-10-18T16:34:15.730Z,84.80
2022-10-18T16:37:07.921Z,84.60
2022-10-18T16:39:59.583Z,84.60
2022-10-18T16:42:54.341Z,85.00
2022-10-18T16:45:40.995Z,85.20
2022-10-18T16:48:33.248Z,85.50
2022-10-18T16:51:28.426Z,84.80
2022-10-18T16:54:21.260Z,85.00
2022-10-18T16:57:13.757Z,85.10
2022-10-18T17:00:08.041Z,84.70
2022-10-18T17:03:00.503Z,84.50
2022-10-18T17:05:53.331Z,84.40
2022-10-18T17:08:46.151Z,84.50
2022-10-18T17:11:38.116Z,84.40
2022-10-18T17:14:25.919Z,84.60
2022-10-18T17:17:18.010Z,84.60
2022-10-18T17:20:21.849Z,84.40
2022-10-18T17:23:15.740Z,84.20
2022-10-18T17:26:08.658Z,84.50
2022-10-18T17:29:16.534Z,84.80
2022-10-18T17:32:04.006Z,85.10
2022-10-18T17:34:54.940Z,86.10
2022-10-18T17:37:51.315Z,85.90
2022-10-18T17:40:43.196Z,86.00
2022-10-18T17:43:28.873Z,86.40
2022-10-18T17:46:15.347Z,86.70
2022-10-18T17:49:02.193Z,87.60
2022-10-18T17:51:50.271Z,87.60
2022-10-18T17:54:35.764Z,87.60
2022-10-18T17:57:24.002Z,87.70
2022-10-18T18:00:11.916Z,88.10
2022-10-18T18:02:58.998Z,87.80
2022-10-18T18:05:47.474Z,88.50
2022-10-18T18:08:36.758Z,88.60
2022-10-18T18:11:29.408Z,88.60
2022-10-18T18:14:20.106Z,88.80
2022-10-18T18:17:12.427Z,88.90
2022-10-18T18:20:03.201Z,89.10
2022-10-18T18:22:57.037Z,90.00
2022-10-18T18:25:56.784Z,89.40
2022-10-18T18:28:48.303Z,89.20
2022-10-18T18:31:41.371Z,88.80
2022-10-18T18:34:36.610Z,87.60
2022-10-18T18:37:28.924Z,87.50
2022-10-18T18:40:23.896Z,85.80
2022-10-18T18:43:23.166Z,84.60
2022-10-18T18:46:18.346Z,83.70
2022-10-18T18:49:11.697Z,83.60
2022-10-18T18:52:05.005Z,83.40
2022-10-18T18:54:56.518Z,83.00
2022-10-18T18:57:48.519Z,82.60
2022-10-18T19:00:41.863Z,82.50
2022-10-18T19:03:35.686Z,82.40
2022-10-18T19:06:38.988Z,80.60
2022-10-18T19:09:29.917Z,80.90
2022-10-18T19:12:21.432Z,80.10
2022-10-18T19:15:13.520Z,77.20
2022-10-18T19:18:05.527Z,78.80
2022-10-18T19:21:03.276Z,79.30
2022-10-18T19:23:48.556Z,79.50
2022-10-18T19:26:47.302Z,79.30
2022-10-18T19:29:35.502Z,78.90
2022-10-18T19:32:25.807Z,78.50
2022-10-18T19:35:13.821Z,79.00
2022-10-18T19:37:59.300Z,79.70
2022-10-18T19:40:51.609Z,79.60
2022-10-18T19:43:39.863Z,79.60
2022-10-18T19:46:27.862Z,79.60
2022-10-18T19:49:16.686Z,79.20
2022-10-18T19:52:12.437Z,79.70
2022-10-18T19:55:01.336Z,79.60
2022-10-18T19:57:52.966Z,79.60
2022-10-18T20:00:41.178Z,79.10
2022-10-18T20:03:32.940Z,79.30
2022-10-18T20:06:25.099Z,79.30
2022-10-18T20:09:19.703Z,79.30
2022-10-18T20:12:12.246Z,79.30
2022-10-18T20:15:05.480Z,78.80
2022-10-18T20:17:56.430Z,78.20
2022-10-18T20:20:45.810Z,78.20
2022-10-18T20:23:39.758Z,77.70
2022-10-18T20:26:26.163Z,77.40
2022-10-18T20:29:20.879Z,77.00
2022-10-18T20:32:10.227Z,76.90
2022-10-18T20:34:58.073Z,76.50
2022-10-18T20:37:43.881Z,76.60
2022-10-18T20:40:35.419Z,76.90
2022-10-18T20:43:25.945Z,77.00
2022-10-18T20:46:13.336Z,76.10
2022-10-18T20:49:06.674Z,76.10
2022-10-18T20:51:54.011Z,76.00
2022-10-18T20:54:42.112Z,75.30
2022-10-18T20:57:36.568Z,75.70
2022-10-18T21:00:31.691Z,75.90
2022-10-18T21:03:23.996Z,75.90
2022-10-18T21:06:22.339Z,76.20
2022-10-18T21:09:17.135Z,76.10
2022-10-18T21:12:02.855Z,75.90
2022-10-18T21:14:55.091Z,76.50
2022-10-18T21:17:40.804Z,76.30
2022-10-18T21:20:32.847Z,76.80
2022-10-18T21:23:18.768Z,77.10
2022-10-18T21:26:16.663Z,76.90
2022-10-18T21:29:02.577Z,77.10
2022-10-18T21:31:48.518Z,76.50
2022-10-18T21:34:37.899Z,76.30
2022-10-18T21:37:23.255Z,76.40
2022-10-18T21:40:15.562Z,76.00
2022-10-18T21:43:01.264Z,76.20
2022-10-18T21:45:49.954Z,76.20
2022-10-18T21:48:44.263Z,76.60
2022-10-18T21:51:30.309Z,76.40
2022-10-18T21:54:16.595Z,76.80
2022-10-18T21:57:01.909Z,76.40
2022-10-18T21:59:47.450Z,76.50
2022-10-18T22:02:32.941Z,77.00
2022-10-18T22:05:19.096Z,76.90
2022-10-18T22:08:05.577Z,76.90
2022-10-18T22:10:51.234Z,76.80
2022-10-18T22:13:37.152Z,77.00
2022-10-18T22:16:22.970Z,77.00
2022-10-18T22:19:11.545Z,76.80
2022-10-18T22:21:56.803Z,76.30
2022-10-18T22:24:44.528Z,75.50
2022-10-18T22:27:30.983Z,74.80
2022-10-18T22:30:16.963Z,74.70
2022-10-18T22:33:02.690Z,74.00
2022-10-18T22:35:51.245Z,73.90
2022-10-18T22:38:36.617Z,73.30
2022-10-18T22:41:22.062Z,70.00
2022-10-18T22:44:14.930Z,70.00
2022-10-18T22:47:03.669Z,69.30
2022-10-18T22:49:51.679Z,68.50
2022-10-18T22:52:37.292Z,68.10
2022-10-18T22:55:23.357Z,67.20
2022-10-18T22:58:08.482Z,67.10
2022-10-18T23:01:23.842Z,65.70
2022-10-18T23:04:10.488Z,66.10
2022-10-18T23:06:58.661Z,65.60
2022-10-18T23:09:44.125Z,65.30
2022-10-18T23:12:29.694Z,65.80
2022-10-18T23:15:15.302Z,66.20
2022-10-18T23:18:01.588Z,66.20
2022-10-18T23:20:46.977Z,66.30
2022-10-18T23:23:36.651Z,66.60
2022-10-18T23:26:24.999Z,67.00
2022-10-18T23:29:11.600Z,67.20
2022-10-18T23:31:57.316Z,67.50
2022-10-18T23:34:49.161Z,67.80
2022-10-18T23:37:35.121Z,68.10
2022-10-18T23:40:20.700Z,67.50
2022-10-18T23:43:08.271Z,67.70
2022-10-18T23:45:56.125Z,67.80
2022-10-18T23:48:44.594Z,67.50
2022-10-18T23:51:32.355Z,67.10
2022-10-18T23:54:17.755Z,67.40
2022-10-18T23:57:03.792Z,67.10
2022-10-18T23:59:49.395Z,67.00
